• Join FlightAware (Why Join?)
  • Login
  • US Flag 
04:04AM EDT


 

Airport Tracker/Info


-or-


 

Live Flight TrackerFlight Track Log ✈ AWI3725 ✈ 29-Apr-2014 ✈ KBGR - KDCA

Flight Track Log - Related Links

Times and Time Zones

All times are in EDT time to prevent confusion due to time zone crossing. See the AWI3725 flight status page for this flight to view local times or setup timezone preferences in your user account.

Time Position Orientation Groundspeed Altitude Reporting Facility
EDT Latitude Longitude Course Direction KTS MPH feet Rate Location/Type
01:18PM 44.8469 -68.8942 226° Southwest 178 205 3,400  Level Boston Center
01:19PM 44.8592 -68.9744 282° West 229 264 6,200 2,400 Climbing Boston Center
01:20PM 44.8075 -69.0336 219° Southwest 235 270 8,400 2,040 Climbing Boston Center
01:21PM 44.7456 -69.1064 220° Southwest 274 315 10,500 2,460 Climbing Boston Center
01:22PM 44.6800 -69.1836 220° Southwest 297 342 13,500 2,580 Climbing Boston Center
01:23PM 44.3932 -69.3693 226° Southwest  Level FlightAware Approximate
01:23PM 44.6125 -69.2608 219° Southwest 307 353 15,800  Level Boston Center
01:24PM 44.5425 -69.3428 220° Southwest 319 367 18,100 1,800 Climbing Boston Center
01:25PM 44.4717 -69.4250 220° Southwest 323 372 19,600 1,560 Climbing Boston Center
01:26PM 44.3997 -69.5097 220° Southwest 331 381 21,300 1,440 Climbing Boston Center
01:27PM 44.3219 -69.5969 219° Southwest 354 407 22,600 1,260 Climbing Boston Center
01:28PM 44.2433 -69.6872 219° Southwest 362 417 23,900 1,200 Climbing Boston Center
01:29PM 44.1631 -69.7811 220° Southwest 371 427 25,100 1,020 Climbing Boston Center
01:30PM 44.0803 -69.8758 219° Southwest 379 436 26,000 1,080 Climbing Boston Center
01:31PM 43.9775 -69.9931 219° Southwest 391 450 27,400 1,080 Climbing Boston Center
01:32PM 43.8911 -70.0897 219° Southwest 394 453 28,300 840 Climbing Boston Center
01:33PM 43.8047 -70.1914 220° Southwest 400 460 29,200 780 Climbing Boston Center
01:34PM 43.7175 -70.2872 218° Southwest 400 460 30,000 360 Climbing Boston Center
01:35PM 43.6308 -70.3833 219° Southwest 399 459 30,000  Level Boston Center
01:36PM 43.5469 -70.4783 219° Southwest 394 453 30,000  Level Boston Center
01:37PM 43.4611 -70.5744 219° Southwest 393 452 30,000  Level Boston Center
01:38PM 43.3614 -70.6561 211° Southwest 406 467 30,000  Level Boston Center
01:39PM 43.2575 -70.7211 205° Southwest 408 470 30,000  Level Boston Center
01:40PM 43.1536 -70.7897 206° Southwest 410 472 30,000  Level Boston Center
01:41PM 43.0475 -70.8517 203° Southwest 413 475 30,000  Level Boston Center
01:42PM 42.9400 -70.9019 199° South 415 478 30,000  Level Boston Center
01:43PM 42.8311 -70.9556 200° South 416 479 30,000  Level Boston Center
01:44PM 42.7042 -71.0169 200° South 408 470 30,000  Level Boston Center
01:45PM 42.5997 -71.0683 200° South 402 463 30,000  Level Boston Center
01:46PM 42.4975 -71.1181 200° South 396 456 30,000  Level Boston Center
01:47PM 42.4058 -71.1869 209° Southwest 381 438 30,000  Level Boston Center
01:48PM 42.3525 -71.3017 238° Southwest 364 419 30,000  Level Boston Center
01:49PM 42.2978 -71.4225 239° Southwest 363 418 30,000  Level Boston Center
01:50PM 42.2458 -71.5369 239° Southwest 361 415 30,000  Level Boston Center
01:51PM 42.1931 -71.6514 238° Southwest 361 415 30,000  Level Boston Center
01:52PM 42.1403 -71.7636 238° Southwest 359 413 30,000  Level Boston Center
01:53PM 42.0886 -71.8769 238° Southwest 357 411 30,000  Level Boston Center
01:54PM 42.0364 -71.9908 238° Southwest 357 411 30,000  Level Boston Center
01:55PM 41.9731 -72.1269 238° Southwest 357 411 30,000  Level Boston Center
01:56PM 41.9203 -72.2411 238° Southwest 357 411 30,000  Level Boston Center
01:57PM 41.8667 -72.3561 238° Southwest 358 412 30,000  Level Boston Center
01:58PM 41.8122 -72.4697 237° Southwest 360 414 30,000  Level Boston Center
01:59PM 41.7592 -72.5844 238° Southwest 360 414 30,000  Level Boston Center
02:00PM 41.7050 -72.6989 238° Southwest 360 414 30,000  Level Boston Center
02:01PM 41.6503 -72.8122 237° Southwest 361 415 30,000  Level Boston Center
02:03PM 41.5975 -72.9236 238° Southwest 359 413 30,000  Level Boston Center
02:04PM 41.5436 -73.0372 238° Southwest 359 413 30,000  Level Boston Center
02:05PM 41.4867 -73.1567 238° Southwest 360 414 30,000  Level Boston Center
02:06PM 41.4328 -73.2675 237° Southwest 360 414 30,000  Level Boston Center
02:07PM 41.3792 -73.3781 237° Southwest 360 414 30,000  Level Boston Center
02:08PM 41.3256 -73.4897 237° Southwest 360 414 30,000  Level Boston Center
02:09PM 41.2703 -73.5992 236° Southwest 359 413 30,000  Level Boston Center
02:10PM 41.1964 -73.7233 232° Southwest 359 413 30,000  Level Boston Center
02:11PM 41.1353 -73.8269 232° Southwest 359 413 30,000  Level Boston Center
02:12PM 41.0733 -73.9300 231° Southwest 359 413 30,000 -240 Level Boston Center
02:13PM 41.0233 -74.0164 233° Southwest 365 420 29,600 -780 Descending New York Center
02:14PM 40.9600 -74.1233 232° Southwest 365 420 28,600 -840 Descending New York Center
02:15PM 40.8856 -74.2431 231° Southwest 376 433 28,000 -300 Descending New York Center
02:16PM 40.8156 -74.3575 231° Southwest 394 453 28,000  Level New York Center
02:17PM 40.7453 -74.4714 231° Southwest 394 453 28,000  Level New York Center
02:18PM 40.6792 -74.5856 233° Southwest 399 459 28,000 -180 Level New York Center
02:19PM 40.6175 -74.6889 232° Southwest 405 466 27,700 -900 Descending New York Center
02:20PM 40.5450 -74.7939 228° Southwest 405 466 26,200 -1,500 Descending New York Center
02:21PM 40.4750 -74.8961 228° Southwest 393 452 24,700 -1,500 Descending New York Center
02:22PM 40.4069 -74.9931 227° Southwest 373 429 23,200 -1,560 Descending New York Center
02:23PM 40.3408 -75.0869 227° Southwest 363 418 21,700 -1,500 Descending New York Center
02:24PM 40.2750 -75.1808 227° Southwest 363 418 20,200 -900 Descending New York Center
02:25PM 40.2089 -75.2717 226° Southwest 358 412 20,000 -120 Descending New York Center
02:26PM 40.1428 -75.3706 229° Southwest 358 412 20,000  Level New York Center
02:27PM 40.0761 -75.4747 230° Southwest 368 423 20,000  Level New York Center
02:28PM 40.0072 -75.5758 228° Southwest 375 432 20,000  Level New York Center
02:29PM 39.9425 -75.6797 231° Southwest 375 432 20,000  Level New York Center
02:30PM 39.8739 -75.7778 228° Southwest 380 437 20,000  Level New York Center
02:31PM 39.8089 -75.8811 231° Southwest 375 432 20,000 -720 Level New York Center
02:32PM 39.7422 -75.9761 228° Southwest 365 420 18,600 -1,320 Descending New York Center
02:33PM 39.6819 -76.0661 229° Southwest 345 397 17,400 -1,440 Descending New York Center
02:34PM 39.6169 -76.1636 229° Southwest 339 390 15,800 -1,500 Descending New York Center
02:35PM 39.5719 -76.2356 231° Southwest 316 364 14,400 -1,320 Descending New York Center
02:37PM 39.4667 -76.4000 230° Southwest 293 337 12,000 -1,080 Descending Potomac TRACON
02:37PM 39.4000 -76.4667 218° Southwest 291 335 11,400 -900 Descending Potomac TRACON
02:39PM 39.3333 -76.5333 218° Southwest 293 337 10,300 -720 Descending Potomac TRACON
02:39PM 39.2667 -76.5833 210° Southwest 279 321 10,000 -180 Descending Potomac TRACON
02:40PM 39.2167 -76.6333 218° Southwest 248 285 10,000  Level Potomac TRACON
02:41PM 39.1500 -76.6667 201° Southwest 399 459 10,000  Level Potomac TRACON
02:42PM 39.1000 -76.7500 232° Southwest 241 277 10,000 -300 Level Potomac TRACON
02:43PM 39.0500 -76.8000 218° Southwest 245 282 9,400 -1,140 Descending Potomac TRACON
02:44PM 39.0000 -76.8667 226° Southwest 250 288 7,900 -1,500 Descending Potomac TRACON
02:45PM 38.9500 -76.9167 218° Southwest 245 282 6,400 -960 Descending Potomac TRACON
02:46PM 38.9000 -76.9333 195° South 196 226 6,000 -240 Descending Potomac TRACON
02:47PM 38.8500 -76.9500 195° South 182 209 6,000  Level Potomac TRACON
02:48PM 38.8000 -76.9500 180° South 181 208 6,000 -360 Level Potomac TRACON
02:49PM 38.7667 -76.9500 180° South 177 204 5,400 -900 Descending Potomac TRACON
02:50PM 38.7167 -76.9333 165° South 159 183 4,300 -1,440 Descending Potomac TRACON
02:51PM 38.6667 -76.9667 208° Southwest 217 250 2,500 -1,200 Descending Potomac TRACON
02:52PM 38.7000 -77.0167 311° West 205 236 2,000 -480 Descending Potomac TRACON
02:53PM 38.7500 -77.0333 345° North 157 181 1,600 -360 Descending Potomac TRACON
02:54PM 38.7833 -77.0333 360° North 144 166 1,300 -600 Descending Potomac TRACON
02:55PM 38.8167 -77.0333 360° North 138 159 500 -840 Descending Potomac TRACON